Tiempo atmosférico en la estación meteorológica de Lubia, Soria (1100 m.)



Fecha
DESCASC
Temp. máxima en grados centígrados (hora)
DESCASC
Temp. mínima en grados centígrados (hora)
DESCASC
Temp. media en grados centígrados
DESCASC
Racha de viento máxima en m/sg (hora)
DESCASC
Velocidad máxima media en intervalos de 10 minutos(hora)
DESCASC
Precipitaciones diarias en mm
DESCASC
Precipitaciones de 00:00 a 06:00 en mm
DESCASC
Precipitaciones de 06:00 a 12:00 en mm
DESCASC
Precipitaciones de 12:00 a 18:00 en mm
DESCASC
Precipitaciones de 18:00 a 24:00 en mm
DESCASC
10-07-2020 27.9 (17:00) 11.8 (02:10) 19.8 9.44 (16:20) 5.28 (18:30) 0 0 0 0 0
09-07-2020 29.8 (15:00) 15.3 (04:10) 22.5 16.11 (17:00) 8.61 (16:00) 1.6 0 0 1.2 0.4
08-07-2020 33.7 (15:10) 14.5 (04:20) 24.1 12.78 (17:50) 7.22 (17:50) 0 0 0 0 0
07-07-2020 33.4 (17:10) 9.1 (07:00) 21.3 10.28 (16:40) 5.83 (16:40) 0 0 0 0 0
06-07-2020 28.6 (16:40) 13.1 (00:00) 20.9 10 (20:00) 6.11 (19:10) 0 0 0 0 0
05-07-2020 31.7 (16:20) 9.4 (06:00) 20.6 7.78 (20:30) 4.72 (20:30) 0 0 0 0 0
04-07-2020 29 (16:10) 5.4 (05:10) 17.2 8.06 (20:20) 5.28 (19:50) 0 0 0 0 0
03-07-2020 26.2 (18:00) 8.7 (06:50) 17.5 8.89 (18:50) 4.72 (09:10) 0 0 0 0 0
02-07-2020 27.3 (15:30) 11.5 (00:00) 19.4 9.17 (15:10) 5.56 (16:10) 0 0 0 0 0
01-07-2020 30.4 (17:00) 13 (00:00) 21.7 10.28 (14:30) 5.83 (19:40) 0 0 0 0 0
30-06-2020 30.6 (14:40) 12.1 (00:00) 21.4 7.78 (15:20) 3.89 (17:50) 0 0 0 0 0
29-06-2020 31 (16:30) 12.3 (00:00) 21.7 9.17 (16:40) 6.11 (19:30) 0 0 0 0 0
28-06-2020 29 (17:50) 14.5 (00:00) 21.8 8.06 (14:10) 4.72 (16:00) 0 0 0 0 0
27-06-2020 27.1 (17:40) 12.8 (00:00) 20 9.72 (14:30) 5.83 (14:50) 0 0 0 0 0
26-06-2020 27 (15:20) 13 (00:00) 20 11.11 (14:50) 6.94 (14:40) 0 0 0 0 0
25-06-2020 -- (--) -- (--) -- -- (--) -- (--) -- 0 0 0 --
24-06-2020 28.6 (17:50) 14.1 (00:00) 21.4 11.39 (15:20) 6.67 (15:30) 4.2 4.2 0 0 0
23-06-2020 31.8 (16:50) 10.9 (00:00) 21.3 7.78 (15:00) 4.44 (15:00) 0 0 0 0 0
22-06-2020 29.2 (18:20) 11 (00:00) 20.1 7.78 (20:00) 4.72 (19:30) 0 0 0 0 0
21-06-2020 28.2 (18:20) 9.9 (00:00) 19.1 10.28 (17:00) 5.56 (13:40) 0 0 0 0 0
20-06-2020 26.9 (17:20) 9.7 (00:00) 18.3 10.28 (16:30) 6.39 (14:10) 0 0 0 0 0
19-06-2020 -- (--) -- (--) -- -- (--) -- (--) -- -- -- -- 0
18-06-2020 -- (--) -- (--) -- -- (--) -- (--) -- -- -- -- --
17-06-2020 19.6 (17:10) 8 (00:00) 13.8 8.89 (15:30) 4.72 (15:40) 0 0 0 0 0
16-06-2020 20.1 (17:00) 9.7 (00:00) 14.9 12.5 (18:30) 6.67 (16:10) 0 0 0 0 0
15-06-2020 22 (15:40) 8 (00:00) 15 8.89 (13:50) 5.28 (12:30) 0 0 0 0 0

Gráficas

Temp. máximas Temp. mínimas Temp. medias Precipitaciones Rachas de viento máximas Velocidades máximas media en intervalos de 10 minutos

Datos horarios

Fecha y hora oficial Temperatura (ºC) Velocidad del viento (km/h) Dirección del viento Racha (km/h) Dirección de racha Precipitación (mm) Presión (hPa) Tendencia (hPa) Humedad (%)
2020-07-14 23:00:00 15 12 Nordeste 27 Nordeste 0 -- -- 64
2020-07-14 22:00:00 16.9 12 Nordeste 31 Nordeste 0 -- -- 56
2020-07-14 21:00:00 19.7 17 Nordeste 34 Este 0 -- -- 41
2020-07-14 20:00:00 22.4 15 Nordeste 37 Este 0 -- -- 35
2020-07-14 19:00:00 23.9 19 Nordeste 33 Nordeste 0 -- -- 26
2020-07-14 18:00:00 24.7 18 Nordeste 31 Nordeste 0 -- -- 21
2020-07-14 17:00:00 25.6 17 Nordeste 27 Nordeste 0 -- -- 18
2020-07-14 16:00:00 24.9 19 Este 34 Nordeste 0 -- -- 17
2020-07-14 15:00:00 25.5 11 Nordeste 33 Este 0 -- -- 16
2020-07-14 14:00:00 23.3 9 Nordeste 26 Nordeste 0 -- -- 17
2020-07-14 13:00:00 23.1 11 Este 21 Este 0 -- -- 15
2020-07-14 12:00:00 21.7 11 Nordeste 21 Nordeste 0 -- -- 16
2020-07-14 11:00:00 19.9 10 Este 17 Este 0 -- -- 19
2020-07-14 10:00:00 16.9 13 Este 19 Este 0 -- -- 29
2020-07-14 09:00:00 13.8 10 Este 16 Este 0 -- -- 33
2020-07-14 08:00:00 12.6 9 Nordeste 16 Este 0 -- -- 32
2020-07-14 07:00:00 10.5 11 Este 15 Nordeste 0 -- -- 40
2020-07-14 06:00:00 10.5 7 Nordeste 18 Nordeste 0 -- -- 45
2020-07-14 05:00:00 10.8 12 Este 19 Nordeste 0 -- -- 51
2020-07-14 04:00:00 11.1 11 Este 17 Este 0 -- -- 56
2020-07-14 03:00:00 11.6 10 Este 16 Nordeste 0 -- -- 63
2020-07-14 02:00:00 12.8 9 Nordeste 16 Nordeste 0 -- -- 58
2020-07-14 01:00:00 13.8 12 Este 21 Nordeste 0 -- -- 64
2020-07-14 00:00:00 15.2 11 Nordeste 23 Este 0 -- -- 61
2020-07-13 23:00:00 16.4 13 Nordeste 30 Nordeste 0 -- -- 62
2020-07-13 22:00:00 17.9 17 Nordeste 34 Nordeste 0 -- -- 59
2020-07-13 21:00:00 20.4 17 Nordeste 32 Nordeste 0 -- -- 53
2020-07-13 20:00:00 23 17 Nordeste 30 Nordeste 0 -- -- 47
2020-07-13 19:00:00 25.1 17 Nordeste 30 Nordeste 0 -- -- 43
2020-07-13 18:00:00 26.4 16 Nordeste 26 Nordeste 0 -- -- 40
2020-07-13 17:00:00 27 10 Este 25 Nordeste 0 -- -- 39
2020-07-13 16:00:00 26.7 13 Este 28 Este 0 -- -- 40
2020-07-13 15:00:00 25.8 11 Nordeste 23 Nordeste 0 -- -- 40
2020-07-13 14:00:00 25.2 8 Nordeste 22 Nordeste 0 -- -- 44
2020-07-13 13:00:00 24.1 9 Nordeste 22 Nordeste 0 -- -- 47
2020-07-13 12:00:00 22.6 12 Este 26 Este 0 -- -- 55
2020-07-13 11:00:00 21.1 13 Nordeste 22 Este 0 -- -- 65
2020-07-13 10:00:00 19.2 13 Nordeste 23 Nordeste 0 -- -- 72
2020-07-13 09:00:00 17.7 9 Nordeste 14 Nordeste 0 -- -- 79
2020-07-13 08:00:00 15.5 9 Nordeste 15 Nordeste 0 -- -- 85
2020-07-13 07:00:00 12.7 5 Nordeste 8 Este 0 -- -- 93
2020-07-13 06:00:00 12.2 5 Nordeste 10 Norte 0 -- -- 96
2020-07-13 05:00:00 12.8 4 Nordeste 12 Nordeste 0 -- -- 91
2020-07-13 04:00:00 13.5 8 Nordeste 18 Este 0 -- -- 86
2020-07-13 03:00:00 13.4 11 Este 17 Nordeste 0 -- -- 88
2020-07-13 02:00:00 12.2 5 Nordeste 12 Sudeste 0 -- -- 98
2020-07-13 01:00:00 12.3 8 Sudeste 12 Este 0 -- -- 97
2020-07-13 00:00:00 12.8 3 Sudeste 15 Este 0 -- -- 96
2020-07-12 23:00:00 13.8 6 Nordeste 18 Oeste 0 -- -- 91
2020-07-12 22:00:00 14.4 9 Noroeste 21 Noroeste 0.4 -- -- 90
2020-07-12 21:00:00 14.8 10 Nordeste 39 Sur 1.8 -- -- 88
2020-07-12 20:00:00 -- -- -- -- -- -- -- -- --
2020-07-12 19:00:00 19.9 24 Oeste 37 Oeste 0 -- -- 51
2020-07-12 18:00:00 25.8 12 Sudeste 30 Sudeste 0 -- -- 41
2020-07-12 17:00:00 27.6 15 Sudeste 32 Sudeste 0 -- -- 33
2020-07-12 16:00:00 26.7 19 Sudeste 34 Este 0 -- -- 38
2020-07-12 15:00:00 26.5 12 Sudeste 30 Este 0 -- -- 44
2020-07-12 14:00:00 25 16 Sudeste 32 Este 0.2 -- -- 48
2020-07-12 13:00:00 23.1 18 Sur 32 Sur 0 -- -- 63
2020-07-12 12:00:00 20.9 7 Norte 49 Sur 0.8 -- -- 50
2020-07-12 11:00:00 16.3 26 Sur -- -- -- -- -- 76
2020-07-12 10:00:00 -- -- -- -- -- -- -- -- --
2020-07-12 09:00:00 -- -- -- -- -- -- -- -- --
2020-07-12 08:00:00 -- -- -- -- -- -- -- -- --
2020-07-12 07:00:00 14.5 5 Noroeste 9 Este 0 -- -- 82
2020-07-12 06:00:00 16.4 6 Nordeste 15 Este 0 -- -- 74
2020-07-12 05:00:00 15.8 5 Nordeste 13 Este 0 -- -- 79
2020-07-12 04:00:00 16.7 7 Este 18 Este 0 -- -- 74
2020-07-12 03:00:00 17.4 10 Este 16 Este 0 -- -- 70
2020-07-12 02:00:00 17.4 8 Este 14 Nordeste 0 -- -- 70
2020-07-12 01:00:00 18 9 Nordeste 22 Nordeste 0 -- -- 68
2020-07-12 00:00:00 18.9 12 Este 23 Este 0 -- -- 65
2020-07-11 23:00:00 19.8 13 Este 22 Nordeste 0 -- -- 60
2020-07-11 22:00:00 21.2 13 Este 26 Este 0 -- -- 54
2020-07-11 21:00:00 23.5 14 Nordeste 31 Este 0 -- -- 47
2020-07-11 20:00:00 25.3 18 Nordeste 32 Nordeste 0 -- -- 43
2020-07-11 19:00:00 26.4 17 Este 32 Este 0 -- -- 41
2020-07-11 18:00:00 28.5 11 Este 21 Este 0 -- -- 35
2020-07-11 17:00:00 30.6 7 Sudoeste 29 Sudeste 0 -- -- 30
2020-07-11 16:00:00 29.6 8 Sudeste 27 Este 0 -- -- 32
2020-07-11 15:00:00 27.2 10 Sudeste 27 Sudeste 0 -- -- 39
2020-07-11 14:00:00 27.6 7 Este 23 Este 0 -- -- 40
2020-07-11 13:00:00 25.8 13 Este 24 Este 0 -- -- 46
2020-07-11 12:00:00 24.2 9 Sudeste 19 Este 0 -- -- 52
2020-07-11 11:00:00 21.2 10 Este 22 Este 0 -- -- 62
2020-07-11 10:00:00 18.8 12 Este 18 Este 0 -- -- 70
2020-07-11 09:00:00 16.3 12 Este 21 Este 0 -- -- 78
2020-07-11 08:00:00 13.8 11 Este 17 Este 0 -- -- 89
2020-07-11 07:00:00 11.8 11 Este 17 Este 0 -- -- 96
2020-07-11 06:00:00 11.9 9 Este 14 Nordeste 0 -- -- 96
2020-07-11 05:00:00 12.4 10 Este 16 Este 0 -- -- 94
2020-07-11 04:00:00 12.5 6 Este 11 Este 0 -- -- 94
2020-07-11 03:00:00 13.1 5 Nordeste 10 Nordeste 0 -- -- 92
2020-07-11 02:00:00 13.8 5 Nordeste 24 Este 0 -- -- 89
2020-07-11 01:00:00 14.9 12 Nordeste 20 Nordeste 0 -- -- 85
2020-07-11 00:00:00 15.4 11 Este 17 Este 0 -- -- 84
2020-07-10 23:00:00 16.6 12 Este 19 Este 0 -- -- 79
2020-07-10 22:00:00 19 11 Este 25 Nordeste 0 -- -- 70
2020-07-10 21:00:00 21.4 14 Nordeste 27 Nordeste 0 -- -- 61
2020-07-10 20:00:00 23.8 18 Nordeste 30 Este 0 -- -- 52
2020-07-10 19:00:00 24.9 14 Nordeste 30 Norte 0 -- -- 46
2020-07-10 18:00:00 26.8 15 Norte 28 Norte 0 -- -- 43
2020-07-10 17:00:00 27.9 7 Sudeste 34 Este 0 -- -- 36
2020-07-10 16:00:00 26.1 9 Este 19 Este 0 -- -- 37
2020-07-10 15:00:00 25.8 3 Sur 28 Este 0 -- -- 38
2020-07-10 14:00:00 27.2 8 Sudeste 27 Sudeste 0 -- -- 35
2020-07-10 13:00:00 25.6 10 Sudeste 22 Este 0 -- -- 43
2020-07-10 12:00:00 23.9 11 Este 23 Este 0 -- -- 46
2020-07-10 11:00:00 22.8 8 Este 16 Este 0 -- -- 51
2020-07-10 10:00:00 21.4 7 Sudeste 15 Este 0 -- -- 55
2020-07-10 09:00:00 19.4 8 Este 13 Este 0 -- -- 62
2020-07-10 08:00:00 17 6 Este 9 Este 0 -- -- 71
2020-07-10 07:00:00 13.1 5 Sudeste 14 Este 0 -- -- 86
2020-07-10 06:00:00 14 9 Este 15 Este 0 -- -- 84
2020-07-10 05:00:00 13.2 9 Este 13 Este 0 -- -- 88
2020-07-10 04:00:00 13.6 4 Este 11 Nordeste 0 -- -- 82
2020-07-10 03:00:00 13.2 3 Sudeste 9 Sudeste 0 -- -- 87
2020-07-10 02:00:00 12.2 3 Nordeste 12 Nordeste 0 -- -- 88
2020-07-10 01:00:00 13.7 3 Este 15 Norte 0 -- -- 82
2020-07-10 00:00:00 15.3 6 Nordeste 17 Sudeste 0 -- -- 76
2020-07-09 23:00:00 15.5 10 Sur 37 Sur 0 -- -- 76
2020-07-09 22:00:00 15.4 14 Sur 34 Sudoeste 0.4 -- -- 81
2020-07-09 21:00:00 16.8 11 Sur 19 Sudeste 0 -- -- 69
2020-07-09 20:00:00 19 4 Sur 22 Noroeste 0 -- -- 61
2020-07-09 19:00:00 19.2 12 Noroeste 30 Oeste 0 -- -- 59
2020-07-09 18:00:00 18.3 20 Sudoeste 35 Sudoeste 0.6 -- -- 63
2020-07-09 17:00:00 17.3 28 Sudoeste 58 Sudoeste -- -- -- 67
2020-07-09 16:00:00 25.6 31 Sudeste 48 Sudeste 0 -- -- 34
2020-07-09 15:00:00 29.8 14 Este 28 Sudeste 0 -- -- 28
2020-07-09 14:00:00 29 14 Sudeste 30 Sur 0 -- -- 30
2020-07-09 13:00:00 28.4 14 Este 28 Este 0 -- -- 30
2020-07-09 12:00:00 26.5 11 Este 21 Este 0 -- -- 35
2020-07-09 11:00:00 25.2 8 Este 18 Este 0 -- -- 41
2020-07-09 10:00:00 22.6 7 Nordeste 27 Este 0 -- -- 46
2020-07-09 09:00:00 19.7 5 Sur 9 Sur 0 -- -- 62
2020-07-09 08:00:00 18.8 2 Norte 12 Nordeste 0 -- -- 59
2020-07-09 07:00:00 17.6 8 Nordeste 18 Este 0 -- -- 60
2020-07-09 06:00:00 18.2 14 Nordeste 22 Este 0 -- -- 62
2020-07-09 05:00:00 17.2 8 Este 13 Nordeste 0 -- -- 63
2020-07-09 04:00:00 15.8 7 Este 13 Sudeste 0 -- -- 65
2020-07-09 03:00:00 17.5 8 Norte 19 Noroeste 0 -- -- 56
2020-07-09 02:00:00 19.1 14 Noroeste 29 Noroeste 0 -- -- 50
2020-07-09 01:00:00 19.2 14 Noroeste 35 Oeste 0 -- -- 52
2020-07-09 00:00:00 20.1 11 Oeste 40 Oeste 0 -- -- 49
2020-07-08 23:00:00 21.8 16 Oeste 31 Oeste 0 -- -- 42
2020-07-08 22:00:00 22 13 Sudeste 27 Sudeste 0 -- -- 41
2020-07-08 21:00:00 24.1 18 Sudeste 41 Sudeste 0 -- -- 34
2020-07-08 20:00:00 25.5 17 Sudeste 33 Sudeste 0 -- -- 30
2020-07-08 19:00:00 27 13 Sudeste 43 Este 0 -- -- 25
2020-07-08 18:00:00 28.2 13 Sur 46 Sur 0 -- -- 18
2020-07-08 17:00:00 30.1 7 Sudoeste 16 Oeste 0 -- -- 22
2020-07-08 16:00:00 32.7 5 Noroeste 34 Oeste 0 -- -- 17
2020-07-08 15:00:00 32.6 9 Oeste 22 Sur 0 -- -- 17
2020-07-08 14:00:00 29.8 4 Sudeste 15 Nordeste 0 -- -- 28
2020-07-08 13:00:00 25.5 8 Norte 21 Nordeste 0 -- -- 36
2020-07-08 12:00:00 23.6 6 Norte 26 Este 0 -- -- 41
2020-07-08 11:00:00 21.2 11 Sudeste 20 Sudeste 0 -- -- 49
2020-07-08 10:00:00 22.1 8 Sur 21 Este 0 -- -- 45
2020-07-08 09:00:00 18.3 14 Este 20 Este 0 -- -- 50
2020-07-08 08:00:00 17.7 12 Sur 33 Sudoeste 0 -- -- 54
2020-07-08 07:00:00 15.5 0 Calma 15 Nordeste 0 -- -- 62
2020-07-08 06:00:00 15.8 9 Nordeste 12 Nordeste 0 -- -- 59
2020-07-08 05:00:00 15.4 8 Este 10 Nordeste 0 -- -- 59
2020-07-08 04:00:00 15.6 6 Nordeste 10 Nordeste 0 -- -- 59
2020-07-08 03:00:00 15.1 7 Este 10 Sudeste 0 -- -- 60
2020-07-08 02:00:00 16.3 8 Este 13 Este 0 -- -- 57
2020-07-08 01:00:00 18 9 Este 13 Este 0 -- -- 51
2020-07-08 00:00:00 18.9 9 Este 19 Este 0 -- -- 46
2020-07-07 23:00:00 20.6 12 Este 22 Este 0 -- -- 41
2020-07-07 22:00:00 22.2 12 Este 24 Nordeste 0 -- -- 34
2020-07-07 21:00:00 25.1 14 Este 30 Este 0 -- -- 29
2020-07-07 20:00:00 27.9 18 Este 30 Este 0 -- -- 25
2020-07-07 19:00:00 31.2 13 Este 34 Oeste 0 -- -- 24
2020-07-07 18:00:00 32.2 14 Noroeste 31 Oeste 0 -- -- 21
2020-07-07 17:00:00 33.1 18 Noroeste 37 Oeste 0 -- -- 21
2020-07-07 16:00:00 32.4 10 Noroeste 33 Oeste 0 -- -- 26
2020-07-07 15:00:00 31.5 15 Noroeste 31 Oeste 0 -- -- 29
2020-07-07 14:00:00 30.5 16 Oeste 30 Oeste 0 -- -- 32
2020-07-07 13:00:00 29.1 9 Oeste 21 Oeste 0 -- -- 34
2020-07-07 12:00:00 27.5 5 Sudoeste 19 Oeste 0 -- -- 30
2020-07-07 11:00:00 24.7 8 Sudoeste 13 Sudoeste 0 -- -- 29
2020-07-07 10:00:00 23.1 3 Norte 8 Nordeste 0 -- -- 18
2020-07-07 09:00:00 21.8 2 Norte 5 Norte 0 -- -- 25
2020-07-07 08:00:00 17.7 2 Este 5 Este 0 -- -- 27
2020-07-07 07:00:00 9.1 2 Norte 8 Este 0 -- -- 48
2020-07-07 06:00:00 10.6 6 Este 13 Este 0 -- -- 41
2020-07-07 05:00:00 11.5 8 Nordeste 12 Este 0 -- -- 41
2020-07-07 04:00:00 11 6 Sudeste 12 Este 0 -- -- 46
2020-07-07 03:00:00 11.4 9 Este 13 Este 0 -- -- 51
2020-07-07 02:00:00 11.7 10 Este 14 Este 0 -- -- 58
2020-07-07 01:00:00 12.9 7 Este 10 Este 0 -- -- 74
2020-07-07 00:00:00 15.2 8 Nordeste 18 Este 0 -- -- 62
2020-07-06 23:00:00 16.7 10 Nordeste 21 Este 0 -- -- 61
2020-07-06 22:00:00 18.4 12 Nordeste 26 Nordeste 0 -- -- 58
2020-07-06 21:00:00 20.8 18 Nordeste 30 Nordeste 0 -- -- 50
2020-07-06 20:00:00 23.1 20 Nordeste 36 Nordeste 0 -- -- 46
2020-07-06 19:00:00 24.8 21 Nordeste 35 Este 0 -- -- 40
2020-07-06 18:00:00 26.6 21 Nordeste 35 Nordeste 0 -- -- 34
2020-07-06 17:00:00 28 19 Nordeste 31 Nordeste 0 -- -- 34
2020-07-06 16:00:00 28.2 14 Nordeste 29 Este 0 -- -- 35
2020-07-06 15:00:00 27.9 14 Nordeste 27 Este 0 -- -- 36
2020-07-06 14:00:00 26.9 13 Norte 27 Este 0 -- -- 39
2020-07-06 13:00:00 26.3 11 Nordeste 23 Este 0 -- -- 40
2020-07-06 12:00:00 25.4 14 Nordeste 25 Este 0 -- -- 42
2020-07-06 11:00:00 23.9 14 Nordeste 26 Nordeste 0 -- -- 44
2020-07-06 10:00:00 22.6 17 Nordeste 25 Nordeste 0 -- -- 48
2020-07-06 09:00:00 21 10 Nordeste 16 Nordeste 0 -- -- 50
2020-07-06 08:00:00 18.9 8 Nordeste 14 Nordeste 0 -- -- 55
2020-07-06 07:00:00 14.6 10 Este 14 Este 0 -- -- 72
2020-07-06 06:00:00 14.1 6 Nordeste 10 Este 0 -- -- 77
2020-07-06 05:00:00 13.3 5 Nordeste 11 Este 0 -- -- 85
2020-07-06 04:00:00 15 8 Este 13 Este 0 -- -- 78
2020-07-06 03:00:00 15.8 8 Este 14 Este 0 -- -- 75
2020-07-06 02:00:00 16.6 8 Este 12 Este 0 -- -- 72
2020-07-06 01:00:00 17 9 Este 13 Este 0 -- -- 71
2020-07-06 00:00:00 18.9 8 Este 17 Nordeste 0 -- -- 64
2020-07-05 23:00:00 21.3 10 Nordeste 21 Nordeste 0 -- -- 56
2020-07-05 22:00:00 22.9 7 Nordeste 25 Nordeste 0 -- -- 47
2020-07-05 21:00:00 26.1 16 Nordeste 28 Nordeste 0 -- -- 39
2020-07-05 20:00:00 28.8 14 Nordeste 22 Nordeste 0 -- -- 31
2020-07-05 19:00:00 29.9 10 Este 18 Este 0 -- -- 24
2020-07-05 18:00:00 31.3 6 Norte 19 Este 0 -- -- 22
2020-07-05 17:00:00 30.8 9 Nordeste 22 Nordeste 0 -- -- 20
2020-07-05 16:00:00 30.8 7 Nordeste 21 Nordeste 0 -- -- 22
2020-07-05 15:00:00 30.2 5 Noroeste 18 Noroeste 0 -- -- 22
2020-07-05 14:00:00 29.3 8 Norte 17 Este 0 -- -- 24
2020-07-05 13:00:00 27.4 6 Sudeste 20 Sudeste 0 -- -- 28
2020-07-05 12:00:00 27.3 7 Oeste 16 Nordeste 0 -- -- 29
2020-07-05 11:00:00 25.2 7 Nordeste 16 Nordeste 0 -- -- 34
2020-07-05 10:00:00 23.3 7 Nordeste 14 Este 0 -- -- 41
2020-07-05 09:00:00 21 2 Norte 6 Noroeste 0 -- -- 45
2020-07-05 08:00:00 19.4 0 Calma 4 Nordeste 0 -- -- 50
2020-07-05 07:00:00 9.9 0 Calma 6 Nordeste 0 -- -- 83
2020-07-05 06:00:00 9.4 4 Nordeste 7 Este 0 -- -- 83
2020-07-05 05:00:00 11.4 5 Este 11 Este 0 -- -- 73
2020-07-05 04:00:00 13.1 10 Este 13 Este 0 -- -- 65
2020-07-05 03:00:00 13.6 6 Nordeste 13 Este 0 -- -- 63
2020-07-05 02:00:00 15.5 8 Este 17 Nordeste 0 -- -- 55
2020-07-05 01:00:00 16.4 10 Este 17 Este 0 -- -- 52
2020-07-05 00:00:00 16.2 10 Este 16 Este 0 -- -- 52
2020-07-04 23:00:00 18.5 10 Nordeste 18 Nordeste 0 -- -- 41
2020-07-04 22:00:00 20.2 10 Nordeste 22 Este 0 -- -- 36
2020-07-04 21:00:00 23.7 12 Nordeste 29 Este 0 -- -- 27
2020-07-04 20:00:00 26.2 16 Este 26 Este 0 -- -- 21
2020-07-04 19:00:00 27.8 8 Nordeste 19 Nordeste 0 -- -- 16
2020-07-04 18:00:00 28.4 8 Nordeste 24 Este 0 -- -- 16
2020-07-04 17:00:00 28.8 10 Sudeste 22 Este 0 -- -- 14
2020-07-04 16:00:00 28.1 8 Norte 18 Noroeste 0 -- -- 13
2020-07-04 15:00:00 27.4 7 Norte 18 Nordeste 0 -- -- 16
2020-07-04 14:00:00 25.6 10 Nordeste 21 Nordeste 0 -- -- 17
2020-07-04 13:00:00 24.5 8 Oeste 17 Oeste 0 -- -- 22
2020-07-04 12:00:00 23 6 Noroeste 12 Norte 0 -- -- 31
2020-07-04 11:00:00 21.6 5 Nordeste 12 Norte 0 -- -- 29
2020-07-04 10:00:00 21.8 2 Noroeste 7 Norte 0 -- -- 31
2020-07-04 09:00:00 16.6 6 Norte 10 Norte 0 -- -- 53
2020-07-04 08:00:00 11.7 5 Norte 9 Norte 0 -- -- 72
2020-07-04 07:00:00 6.8 4 Noroeste 6 Noroeste 0 -- -- 99
2020-07-04 06:00:00 6.4 3 Noroeste 6 Norte 0 -- -- 99
2020-07-04 05:00:00 5.7 4 Norte 7 Sudoeste 0 -- -- 94
2020-07-04 04:00:00 6.6 5 Sudoeste 8 Sudoeste 0 -- -- 96
2020-07-04 03:00:00 7.8 4 Este 8 Este 0 -- -- 93
2020-07-04 02:00:00 9.5 5 Este 8 Este 0 -- -- 88
2020-07-04 01:00:00 10.2 6 Este 10 Nordeste 0 -- -- 84
2020-07-04 00:00:00 12.3 7 Este 17 Este 0 -- -- 75
2020-07-03 23:00:00 13.9 7 Nordeste 20 Nordeste 0 -- -- 69
2020-07-03 22:00:00 16.1 10 Nordeste 23 Este 0 -- -- 62
2020-07-03 21:00:00 19.5 14 Este 23 Este 0 -- -- 52
2020-07-03 20:00:00 22.4 11 Nordeste 23 Oeste 0 -- -- 42
2020-07-03 19:00:00 25.5 15 Noroeste 32 Oeste 0 -- -- 20
2020-07-03 18:00:00 26.2 7 Noroeste 23 Oeste 0 -- -- 26
2020-07-03 17:00:00 24.7 6 Nordeste 21 Sudeste 0 -- -- 35
2020-07-03 16:00:00 23.7 10 Este 21 Sudeste 0 -- -- 36
2020-07-03 15:00:00 22.3 10 Nordeste 20 Nordeste 0 -- -- 40
2020-07-03 14:00:00 21.4 9 Nordeste 17 Este 0 -- -- 40
2020-07-03 13:00:00 20.2 8 Noroeste 19 Nordeste 0 -- -- 46
2020-07-03 12:00:00 18.1 9 Este 20 Este 0 -- -- 52
2020-07-03 11:00:00 16.6 10 Nordeste 24 Nordeste 0 -- -- 57
2020-07-03 10:00:00 15.1 14 Nordeste 26 Nordeste 0 -- -- 63
2020-07-03 09:00:00 13.6 14 Nordeste 28 Nordeste 0 -- -- 70
2020-07-03 08:00:00 11.5 12 Nordeste 22 Este 0 -- -- 81
2020-07-03 07:00:00 8.9 9 Este 18 Nordeste 0 -- -- 94
2020-07-03 06:00:00 9.6 13 Nordeste 23 Este 0 -- -- 90
2020-07-03 05:00:00 9.7 10 Nordeste 20 Nordeste 0 -- -- 89
2020-07-03 04:00:00 10 9 Nordeste 21 Nordeste 0 -- -- 88
2020-07-03 03:00:00 10.5 11 Nordeste 26 Nordeste 0 -- -- 85
2020-07-03 02:00:00 11.2 16 Nordeste 27 Nordeste 0 -- -- 83
2020-07-03 01:00:00 11.6 16 Nordeste 25 Nordeste 0 -- -- 82
2020-07-03 00:00:00 11.7 13 Nordeste 31 Nordeste 0 -- -- 85
2020-07-02 23:00:00 12.4 17 Nordeste 31 Nordeste 0 -- -- 84
2020-07-02 22:00:00 13.8 18 Nordeste 32 Nordeste 0 -- -- 82
2020-07-02 21:00:00 16.8 20 Nordeste 33 Nordeste 0 -- -- 70
2020-07-02 20:00:00 19.2 16 Nordeste 30 Este 0 -- -- 64
2020-07-02 19:00:00 20.5 17 Este 30 Oeste 0 -- -- 61
2020-07-02 18:00:00 25.4 16 Oeste 29 Oeste 0 -- -- 36
2020-07-02 17:00:00 25.7 19 Oeste 33 Oeste 0 -- -- 39
2020-07-02 16:00:00 26.5 19 Oeste 33 Oeste 0 -- -- 39
2020-07-02 15:00:00 26.2 18 Oeste 32 Oeste 0 -- -- 40
2020-07-02 14:00:00 25.9 15 Oeste 26 Oeste 0 -- -- 42
2020-07-02 13:00:00 24.5 17 Oeste 28 Oeste 0 -- -- 45
2020-07-02 12:00:00 23.9 13 Oeste 26 Oeste 0 -- -- 48
2020-07-02 11:00:00 22.6 14 Noroeste 25 Noroeste 0 -- -- 50
2020-07-02 10:00:00 21.4 12 Oeste 22 Oeste 0 -- -- 61
2020-07-02 09:00:00 19.3 11 Oeste 19 Oeste 0 -- -- 69
2020-07-02 08:00:00 18.3 3 Sudoeste 6 Sudoeste 0 -- -- 78
2020-07-02 07:00:00 11.5 0 Calma 4 Oeste 0 -- -- 100
2020-07-02 06:00:00 12.1 3 Noroeste 6 Norte 0 -- -- 99
2020-07-02 05:00:00 12.4 2 Norte 7 Sudoeste 0 -- -- 99
2020-07-02 04:00:00 12.5 0 Calma 7 Este 0 -- -- 97
2020-07-02 03:00:00 13.9 3 Nordeste 8 Este 0 -- -- 95
2020-07-02 02:00:00 14.6 4 Nordeste 9 Nordeste 0 -- -- 90
2020-07-02 01:00:00 16.3 7 Este 14 Este 0 -- -- 85
2020-07-02 00:00:00 17.2 10 Este 17 Este 0 -- -- 83
2020-07-01 23:00:00 19 10 Este 16 Este 0 -- -- 76
2020-07-01 22:00:00 22.8 6 Oeste 29 Oeste 0 -- -- 34
2020-07-01 21:00:00 26.4 14 Oeste 34 Oeste 0 -- -- 27
2020-07-01 20:00:00 28.3 19 Oeste 37 Oeste 0 -- -- 27
2020-07-01 19:00:00 28.7 17 Oeste 33 Noroeste 0 -- -- 31
2020-07-01 18:00:00 29.8 19 Oeste 31 Oeste 0 -- -- 32
2020-07-01 17:00:00 30.4 15 Oeste 32 Oeste 0 -- -- 32
2020-07-01 16:00:00 30.3 21 Oeste 36 Oeste 0 -- -- 31
2020-07-01 15:00:00 29.2 18 Oeste 37 Noroeste 0 -- -- 33
2020-07-01 14:00:00 28.2 17 Noroeste 33 Oeste 0 -- -- 38
2020-07-01 13:00:00 27.7 14 Oeste 32 Oeste 0 -- -- 41
2020-07-01 12:00:00 25.1 18 Oeste 28 Oeste 0 -- -- 50
2020-07-01 11:00:00 24.5 19 Oeste 32 Oeste 0 -- -- 50
2020-07-01 10:00:00 23.5 18 Oeste 34 Oeste 0 -- -- 53
2020-07-01 09:00:00 22.2 14 Oeste 28 Oeste 0 -- -- 58
2020-07-01 08:00:00 20.5 3 Noroeste 5 Oeste 0 -- -- 71
2020-07-01 07:00:00 13.8 3 Noroeste 5 Oeste 0 -- -- 97
2020-07-01 06:00:00 13.4 0 Calma 11 Oeste 0 -- -- 92
2020-07-01 05:00:00 14.1 3 Noroeste 6 Noroeste 0 -- -- 89
2020-07-01 04:00:00 15.1 4 Norte 6 Norte 0 -- -- 83
2020-07-01 03:00:00 16 5 Este 9 Nordeste 0 -- -- 79
2020-07-01 02:00:00 17.8 5 Este 13 Este 0 -- -- 71
2020-07-01 01:00:00 18.6 6 Nordeste 13 Nordeste 0 -- -- 66
2020-07-01 00:00:00 19.7 12 Nordeste 20 Nordeste 0 -- -- 61
2020-06-30 23:00:00 18.8 7 Noroeste 17 Oeste 0 -- -- 68
2020-06-30 22:00:00 19.9 6 Nordeste 18 Nordeste 0 -- -- 62
2020-06-30 21:00:00 21.6 12 Nordeste 23 Nordeste 0 -- -- 56
2020-06-30 20:00:00 22.2 9 Norte 23 Nordeste 0 -- -- 56
2020-06-30 19:00:00 24.3 8 Nordeste 20 Este 0 -- -- 52
2020-06-30 18:00:00 25.9 14 Este 23 Este 0 -- -- 48
2020-06-30 17:00:00 27.8 5 Nordeste 12 Noroeste 0 -- -- 37
2020-06-30 16:00:00 25.6 8 Nordeste 28 Noroeste 0 -- -- 41
2020-06-30 15:00:00 30.3 4 Noroeste 17 Sudeste 0 -- -- 31
2020-06-30 14:00:00 29.5 7 Sudeste 18 Sudoeste 0 -- -- 34
2020-06-30 13:00:00 27.7 6 Sur 16 Sudeste 0 -- -- 38
2020-06-30 12:00:00 26.7 4 Sur 17 Sur 0 -- -- 42
2020-06-30 11:00:00 23.7 9 Este 19 Este 0 -- -- 47
2020-06-30 10:00:00 21.6 12 Este 18 Este 0 -- -- 55
2020-06-30 09:00:00 19.5 10 Este 14 Este 0 -- -- 68
2020-06-30 08:00:00 17.9 5 Este 9 Este 0 -- -- 62
2020-06-30 07:00:00 12.8 8 Este 10 Este 0 -- -- 78
2020-06-30 06:00:00 12.5 5 Este 9 Este 0 -- -- 78
2020-06-30 05:00:00 12.6 3 Nordeste 9 Este 0 -- -- 84
2020-06-30 04:00:00 15 8 Este 14 Este 0 -- -- 73
2020-06-30 03:00:00 14.9 9 Este 15 Nordeste 0 -- -- 83
2020-06-30 02:00:00 16.2 12 Este 17 Este 0 -- -- 74
2020-06-30 01:00:00 16.5 9 Este 19 Nordeste 0 -- -- 82
2020-06-30 00:00:00 17.1 11 Este 19 Nordeste 0 -- -- 83
2020-06-29 23:00:00 18.1 8 Nordeste 22 Nordeste 0 -- -- 80
2020-06-29 22:00:00 19.4 13 Nordeste 23 Nordeste 0 -- -- 74
2020-06-29 21:00:00 21.9 16 Nordeste 28 Nordeste 0 -- -- 63
2020-06-29 20:00:00 24.4 17 Este 33 Este 0 -- -- 56
2020-06-29 19:00:00 30.8 6 Oeste 26 Oeste 0 -- -- 31
2020-06-29 18:00:00 30.4 10 Sudoeste 32 Oeste 0 -- -- 33
2020-06-29 17:00:00 29.6 8 Sudoeste 33 Sur 0 -- -- 35
2020-06-29 16:00:00 30.4 12 Oeste 26 Sudoeste 0 -- -- 34
2020-06-29 15:00:00 29.1 14 Oeste 28 Oeste 0 -- -- 37
2020-06-29 14:00:00 28 12 Oeste 23 Sudoeste 0 -- -- 40
2020-06-29 13:00:00 26.5 11 Sur 20 Sudoeste 0 -- -- 45
2020-06-29 12:00:00 25.3 7 Oeste 14 Sur 0 -- -- 51
2020-06-29 11:00:00 23.5 7 Sudoeste 14 Sur 0 -- -- 58
2020-06-29 10:00:00 22 5 Sur 10 Sudeste 0 -- -- 63
2020-06-29 09:00:00 20 6 Este 10 Este 0 -- -- 72
2020-06-29 08:00:00 17.5 5 Este 8 Nordeste 0 -- -- 81
2020-06-29 07:00:00 13 3 Nordeste 7 Nordeste 0 -- -- 99
2020-06-29 06:00:00 12.5 3 Noroeste 6 Nordeste 0 -- -- 98
2020-06-29 05:00:00 13.1 4 Nordeste 6 Este 0 -- -- 96
2020-06-29 04:00:00 14.3 4 Nordeste 9 Nordeste 0 -- -- 91
2020-06-29 03:00:00 14.9 6 Nordeste 10 Nordeste 0 -- -- 89
2020-06-29 02:00:00 15.6 5 Nordeste 11 Este 0 -- -- 85
2020-06-29 01:00:00 17.4 9 Este 14 Nordeste 0 -- -- 78
2020-06-29 00:00:00 18.4 10 Este 18 Nordeste 0 -- -- 74
2020-06-28 23:00:00 20.5 11 Este 24 Este 0 -- -- 68
2020-06-28 22:00:00 23.4 5 Noroeste 14 Oeste 0 -- -- 48
2020-06-28 21:00:00 27 7 Noroeste 12 Oeste 0 -- -- 38
2020-06-28 20:00:00 26.8 13 Oeste 22 Oeste 0 -- -- 38
2020-06-28 19:00:00 28 10 Sudoeste 27 Noroeste 0 -- -- 37
2020-06-28 18:00:00 28 13 Oeste 29 Oeste 0 -- -- 37
2020-06-28 17:00:00 28.9 11 Noroeste 27 Sudoeste 0 -- -- 36
2020-06-28 16:00:00 27.7 17 Oeste 29 Oeste 0 -- -- 40
2020-06-28 15:00:00 26.9 13 Sudoeste 29 Oeste 0 -- -- 40
2020-06-28 14:00:00 26.3 13 Oeste 24 Oeste 0 -- -- 41
2020-06-28 13:00:00 25.6 13 Oeste 23 Oeste 0 -- -- 44
2020-06-28 12:00:00 24.8 10 Oeste 22 Oeste 0 -- -- 47
2020-06-28 11:00:00 23.9 10 Noroeste 20 Oeste 0 -- -- 50
2020-06-28 10:00:00 22.3 9 Noroeste 18 Oeste 0 -- -- 56
2020-06-28 09:00:00 17.1 13 Oeste 22 Noroeste 0 -- -- 73
2020-06-28 08:00:00 15.8 12 Oeste 19 Oeste 0 -- -- 76
2020-06-28 07:00:00 14.8 13 Oeste 19 Noroeste 0 -- -- 80
2020-06-28 06:00:00 15.1 12 Oeste 21 Sudoeste 0 -- -- 78
2020-06-28 05:00:00 15.2 10 Oeste 16 Sudoeste 0 -- -- 76
2020-06-28 04:00:00 16.2 10 Oeste 17 Oeste 0 -- -- 70
2020-06-28 03:00:00 16.1 10 Sudoeste 14 Sudoeste 0 -- -- 71
2020-06-28 02:00:00 14.7 3 Oeste 4 Sudoeste 0 -- -- 88
2020-06-28 01:00:00 15.9 3 Este 9 Este 0 -- -- 78
2020-06-28 00:00:00 16 0 Calma 7 Noroeste 0 -- -- 68
2020-06-27 23:00:00 17.7 5 Oeste 6 Oeste 0 -- -- 60
2020-06-27 22:00:00 19.3 5 Oeste 13 Noroeste 0 -- -- 58
2020-06-27 21:00:00 23.9 7 Noroeste 24 Oeste 0 -- -- 43
2020-06-27 20:00:00 24.7 14 Oeste 27 Oeste 0 -- -- 40
2020-06-27 19:00:00 26.1 14 Oeste 31 Oeste 0 -- -- 38
2020-06-27 18:00:00 25.9 13 Noroeste 29 Oeste 0 -- -- 38
2020-06-27 17:00:00 26.4 17 Oeste 34 Oeste 0 -- -- 38
2020-06-27 16:00:00 26 17 Oeste 31 Oeste 0 -- -- 40
2020-06-27 15:00:00 24.9 20 Oeste 35 Oeste 0 -- -- 42
2020-06-27 14:00:00 24 18 Oeste 31 Oeste 0 -- -- 46
2020-06-27 13:00:00 23.6 17 Oeste 35 Oeste 0 -- -- 48
2020-06-27 12:00:00 22.2 18 Oeste 33 Oeste 0 -- -- 50
2020-06-27 11:00:00 20.7 16 Noroeste 32 Oeste 0 -- -- 57
2020-06-27 10:00:00 19.8 13 Oeste 24 Oeste 0 -- -- 60
2020-06-27 09:00:00 17.2 18 Oeste 29 Oeste 0 -- -- 67
2020-06-27 08:00:00 15.7 15 Oeste 28 Oeste 0 -- -- 70
2020-06-27 07:00:00 13 9 Oeste 23 Oeste 0 -- -- 76
2020-06-27 06:00:00 13.7 13 Oeste 26 Oeste 0 -- -- 69
2020-06-27 05:00:00 14.3 16 Oeste 25 Oeste 0 -- -- 60
2020-06-27 04:00:00 14.4 11 Oeste 19 Oeste 0 -- -- 56
2020-06-27 03:00:00 15.7 11 Noroeste 22 Oeste 0 -- -- 48
2020-06-27 02:00:00 15.4 13 Oeste 19 Noroeste 0 -- -- 49
2020-06-27 01:00:00 15.7 9 Noroeste 15 Oeste 0 -- -- 48
2020-06-27 00:00:00 17.6 13 Oeste 24 Oeste 0 -- -- 43
2020-06-26 23:00:00 19.1 14 Oeste 24 Oeste 0 -- -- 41
2020-06-26 22:00:00 20.7 10 Oeste 15 Oeste 0 -- -- 45
2020-06-26 21:00:00 22.3 8 Oeste 26 Oeste 0 -- -- 44
2020-06-26 20:00:00 24.7 18 Oeste 31 Sudoeste 0 -- -- 35
2020-06-26 19:00:00 26.6 21 Sudoeste 36 Sudoeste 0 -- -- 27
2020-06-26 18:00:00 27 19 Sudoeste 35 Sudoeste 0 -- -- 29
2020-06-26 17:00:00 26.8 20 Sudoeste 39 Sudoeste 0 -- -- 32
2020-06-26 16:00:00 25.6 17 Sudoeste 38 Sudoeste 0 -- -- 36
2020-06-26 15:00:00 26.4 21 Sudoeste 40 Sudoeste 0 -- -- 35
2020-06-26 14:00:00 24.7 23 Sudoeste 40 Sudoeste 0 -- -- 39
2020-06-26 13:00:00 25.8 13 Sudoeste 29 Sur 0 -- -- 43
2020-06-26 12:00:00 23.9 11 Sur 22 Sur 0 -- -- 51
2020-06-26 11:00:00 22 8 Sur 16 Sur 0 -- -- 56
2020-06-26 10:00:00 21.4 4 Sur 15 Sur 0 -- -- 54
2020-06-26 09:00:00 18.7 6 Sudeste 12 Sudeste 0 -- -- 72
2020-06-26 08:00:00 15.4 2 Este 6 Nordeste 0 -- -- 87
2020-06-26 07:00:00 13.3 3 Nordeste 8 Este 0 -- -- 95
2020-06-26 06:00:00 13.1 4 Este 11 Este 0 -- -- 96
2020-06-26 05:00:00 13.2 6 Este 13 Este 0 -- -- 94
2020-06-26 04:00:00 15.1 12 Este 17 Este 0 -- -- 87
2020-06-26 03:00:00 15.4 13 Este 22 Este 0 -- -- 87
2020-06-26 02:00:00 15.3 10 Sudeste 19 Sudeste 0 -- -- 91
2020-06-26 01:00:00 14.6 7 Este 16 Este 0 -- -- 94
2020-06-26 00:00:00 14.8 5 Nordeste 10 Nordeste 0 -- -- 92
2020-06-25 23:00:00 16.1 8 Este 17 Este 0 -- -- 86
2020-06-25 22:00:00 16.2 14 Este 28 Nordeste 0 -- -- 84
2020-06-25 21:00:00 16.8 6 Norte 20 Este 0.6 -- -- 83
2020-06-25 20:00:00 18.1 8 Nordeste 64 Sudeste 0.4 -- -- 77
2020-06-25 19:00:00 -- -- -- -- -- -- -- -- --
2020-06-25 18:00:00 22.9 12 Este 30 Este 0 -- -- 59
2020-06-25 17:00:00 26.3 13 Este 35 Sudeste 0 -- -- 48
2020-06-25 16:00:00 29.8 6 Sur 20 Sudeste 0 -- -- 35
2020-06-25 15:00:00 27.7 4 Norte 19 Noroeste 0 -- -- 39
2020-06-25 14:00:00 27.6 10 Norte 22 Noroeste 0 -- -- 40
2020-06-25 13:00:00 26 12 Oeste 28 Sur 0 -- -- 45
2020-06-25 12:00:00 26.9 11 Sur 25 Sudeste 0 -- -- 39
2020-06-25 11:00:00 24.8 10 Sur 21 Sudeste 0 -- -- 45
2020-06-25 10:00:00 22.7 8 Este 13 Este 0 -- -- 54
2020-06-25 09:00:00 19.8 9 Este 13 Este 0 -- -- 63
2020-06-25 08:00:00 18.5 0 Calma 6 Nordeste 0 -- -- 69
2020-06-25 07:00:00 12.8 4 Este 7 Este 0 -- -- 86
2020-06-25 06:00:00 13.3 7 Sudeste 9 Sudeste 0 -- -- 84
2020-06-25 05:00:00 12.5 4 Nordeste 10 Este 0 -- -- 88
2020-06-25 04:00:00 14.4 5 Norte 10 Norte 0 -- -- 80
2020-06-25 03:00:00 13.7 3 Norte 10 Norte 0 -- -- 83
2020-06-25 02:00:00 15.7 5 Nordeste 19 Nordeste 0 -- -- 73
2020-06-25 01:00:00 16.9 11 Este 18 Este 0 -- -- 67
2020-06-25 00:00:00 17.7 8 Sudeste 22 Este 0 -- -- 65
2020-06-24 23:00:00 19.8 10 Sudeste 18 Sudeste 0 -- -- 56
2020-06-24 22:00:00 18.1 7 Sudoeste 9 Sudoeste 0 -- -- 60
2020-06-24 21:00:00 23.6 5 Sudoeste 17 Sudoeste 0 -- -- 50
2020-06-24 20:00:00 25.6 10 Sudoeste 21 Sudoeste 0 -- -- 36
2020-06-24 19:00:00 27.8 11 Sudoeste 19 Sudoeste 0 -- -- 34
2020-06-24 18:00:00 28.2 8 Sur 18 Sur 0 -- -- 34
2020-06-24 17:00:00 25.8 8 Oeste 22 Sur 0 -- -- 38
2020-06-24 16:00:00 24.4 14 Sur 41 Sur 0 -- -- 44
2020-06-24 15:00:00 25.7 20 Sudoeste 35 Sur 0 -- -- 43
2020-06-24 14:00:00 22.3 8 Sur 17 Sudeste 0 -- -- 51
2020-06-24 13:00:00 -- 8 Oeste 23 Oeste 0 -- -- --
2020-06-24 12:00:00 22.4 8 Noroeste 13 Noroeste 0 -- -- 63
2020-06-24 11:00:00 22.2 6 Sur 12 Sur 0 -- -- 60
2020-06-24 10:00:00 22.7 5 Sur 14 Sur 0 -- -- 59
2020-06-24 09:00:00 22.6 3 Sudeste 10 Este 0 -- -- 56
2020-06-24 08:00:00 18.9 6 Este 13 Este 0 -- -- 64
2020-06-24 07:00:00 14.5 5 Este 10 Sur 0 -- -- 82
2020-06-24 06:00:00 16.9 7 Sur 13 Sur 0 -- -- 68
2020-06-24 05:00:00 16.1 11 Sur 15 Sur 0 -- -- 70
2020-06-24 04:00:00 16.1 8 Sudeste 12 Este 0 -- -- 70
2020-06-24 03:00:00 14.6 2 Norte 14 Nordeste 0 -- -- 90
2020-06-24 02:00:00 15.9 3 Este 18 Sudeste 0 -- -- 84
2020-06-24 01:00:00 16.6 9 Este 36 Oeste 4.2 -- -- 71
2020-06-24 00:00:00 21.3 11 Noroeste 28 Noroeste 0 -- -- 42
2020-06-23 23:00:00 21 10 Noroeste 21 Oeste 0 -- -- 57
2020-06-23 22:00:00 22.7 6 Este 13 Este 0 -- -- 53
2020-06-23 21:00:00 23.6 8 Nordeste 18 Este 0 -- -- 51
2020-06-23 20:00:00 25.9 14 Nordeste 24 Nordeste 0 -- -- 45
2020-06-23 19:00:00 27.7 6 Sudoeste 17 Sudoeste 0 -- -- 33
2020-06-23 18:00:00 27.5 6 Sudoeste 22 Sur 0 -- -- 36
2020-06-23 17:00:00 29.9 6 Sudoeste 19 Oeste 0 -- -- 30
2020-06-23 16:00:00 29.9 8 Norte 24 Sudoeste 0 -- -- 24
2020-06-23 15:00:00 30.9 16 Oeste 28 Oeste 0 -- -- 25
2020-06-23 14:00:00 30.2 5 Oeste 19 Sudoeste 0 -- -- 29
2020-06-23 13:00:00 28.3 8 Sur 15 Sudeste 0 -- -- 37
2020-06-23 12:00:00 26.9 5 Sur 14 Sudoeste 0 -- -- 41
2020-06-23 11:00:00 25.2 6 Sur 14 Este 0 -- -- 45
2020-06-23 10:00:00 22.7 9 Este 15 Este 0 -- -- 47
2020-06-23 09:00:00 20.6 9 Este 13 Este 0 -- -- 48
2020-06-23 08:00:00 20.3 2 Nordeste 7 Nordeste 0 -- -- 52
2020-06-23 07:00:00 11.7 3 Norte 8 Nordeste 0 -- -- 81
2020-06-23 06:00:00 10.9 3 Nordeste 8 Este 0 -- -- 84
2020-06-23 05:00:00 11.9 5 Nordeste 8 Este 0 -- -- 80
2020-06-23 04:00:00 13.8 4 Este 13 Sudeste 0 -- -- 69
2020-06-23 03:00:00 14 8 Sudeste 12 Este 0 -- -- 72
2020-06-23 02:00:00 14.5 9 Sudeste 12 Sudeste 0 -- -- 70
2020-06-23 01:00:00 15.8 6 Este 10 Este 0 -- -- 66
2020-06-23 00:00:00 17.5 8 Este 17 Este 0 -- -- 56
2020-06-22 23:00:00 18.9 8 Nordeste 13 Nordeste 0 -- -- 49
2020-06-22 22:00:00 20.6 9 Nordeste 21 Este 0 -- -- 45
2020-06-22 21:00:00 23.9 11 Nordeste 24 Nordeste 0 -- -- 38
2020-06-22 20:00:00 26.2 17 Este 28 Este 0 -- -- 34
2020-06-22 19:00:00 27.6 16 Este 25 Este 0 -- -- 29
2020-06-22 18:00:00 28.4 10 Nordeste 21 Norte 0 -- -- 24
2020-06-22 17:00:00 28.7 8 Nordeste 19 Este 0 -- -- 25
2020-06-22 16:00:00 28.3 6 Sudeste 19 Sudeste 0 -- -- 27
2020-06-22 15:00:00 27.9 5 Noroeste 20 Este 0 -- -- 29
2020-06-22 14:00:00 26.1 5 Oeste 15 Este 0 -- -- 35
2020-06-22 13:00:00 24.8 6 Nordeste 14 Este 0 -- -- 40
2020-06-22 12:00:00 23.3 5 Este 16 Norte 0 -- -- 42
2020-06-22 11:00:00 21.4 8 Este 16 Este 0 -- -- 53
2020-06-22 10:00:00 19.7 9 Este 17 Este 0 -- -- 61
2020-06-22 09:00:00 16.7 10 Nordeste 17 Este 0 -- -- 71
2020-06-22 08:00:00 14.4 10 Este 17 Este 0 -- -- 80
2020-06-22 07:00:00 11.9 12 Este 18 Este 0 -- -- 90
2020-06-22 06:00:00 11.2 11 Este 15 Este 0 -- -- 91
2020-06-22 05:00:00 11.3 10 Este 16 Este 0 -- -- 89
2020-06-22 04:00:00 12.3 8 Este 22 Nordeste 0 -- -- 84
2020-06-22 03:00:00 13.1 11 Nordeste 19 Nordeste 0 -- -- 79
2020-06-22 02:00:00 13.2 10 Este 21 Nordeste 0 -- -- 80
2020-06-22 01:00:00 14.9 14 Nordeste 26 Nordeste 0 -- -- 73
2020-06-22 00:00:00 15.5 13 Nordeste 31 Este 0 -- -- 71
2020-06-21 23:00:00 16.7 15 Nordeste 27 Nordeste 0 -- -- 65
2020-06-21 22:00:00 18.5 14 Nordeste 30 Nordeste 0 -- -- 59
2020-06-21 21:00:00 21.5 20 Este 37 Este 0 -- -- 50
2020-06-21 20:00:00 24.5 13 Nordeste 24 Este 0 -- -- 43
2020-06-21 19:00:00 27.3 9 Noroeste 26 Oeste 0 -- -- 18
2020-06-21 18:00:00 27.8 13 Noroeste 33 Noroeste 0 -- -- 20
2020-06-21 17:00:00 27.6 19 Noroeste 37 Noroeste 0 -- -- 25
2020-06-21 16:00:00 26.9 17 Noroeste 34 Oeste 0 -- -- 26
2020-06-21 15:00:00 26.2 20 Oeste 32 Noroeste 0 -- -- 30
2020-06-21 14:00:00 25 19 Noroeste 33 Noroeste 0 -- -- 33
2020-06-21 13:00:00 24.6 18 Noroeste 28 Oeste 0 -- -- 37
2020-06-21 12:00:00 23.7 12 Noroeste 26 Oeste 0 -- -- 41
2020-06-21 11:00:00 22.4 13 Oeste 21 Oeste 0 -- -- 44
2020-06-21 10:00:00 20.6 12 Noroeste 25 Oeste 0 -- -- 45
2020-06-21 09:00:00 18.9 11 Oeste 18 Oeste 0 -- -- 51
2020-06-21 08:00:00 16.6 8 Oeste 13 Oeste 0 -- -- 61
2020-06-21 07:00:00 10.6 4 Noroeste 6 Noroeste 0 -- -- 99
2020-06-21 06:00:00 10.7 7 Oeste 11 Oeste 0 -- -- 95
2020-06-21 05:00:00 11.1 4 Noroeste 9 Noroeste 0 -- -- 98
2020-06-21 04:00:00 11.2 5 Noroeste 8 Noroeste 0 -- -- 96
2020-06-21 03:00:00 12.7 3 Nordeste 9 Nordeste 0 -- -- 87
2020-06-21 02:00:00 12.6 4 Este 9 Este 0 -- -- 89
2020-06-21 01:00:00 14.3 6 Este 10 Este 0 -- -- 81
2020-06-21 00:00:00 17 6 Nordeste 14 Nordeste 0 -- -- 66
2020-06-20 23:00:00 17.4 5 Nordeste 12 Nordeste 0 -- -- 63
2020-06-20 22:00:00 18.5 4 Oeste 9 Oeste 0 -- -- 49
2020-06-20 21:00:00 24 7 Noroeste 23 Sudoeste 0 -- -- 34
2020-06-20 20:00:00 25.6 14 Oeste 29 Oeste 0 -- -- 29
2020-06-20 19:00:00 26.6 14 Oeste 28 Oeste 0 -- -- 28
2020-06-20 18:00:00 26.9 15 Oeste 31 Oeste 0 -- -- 28
2020-06-20 17:00:00 26.7 17 Noroeste 37 Oeste 0 -- -- 30
2020-06-20 16:00:00 25.7 16 Oeste 29 Oeste 0 -- -- 32
2020-06-20 15:00:00 25.5 14 Oeste 35 Oeste 0 -- -- 34
2020-06-20 14:00:00 24 18 Oeste 36 Noroeste 0 -- -- 35
2020-06-20 13:00:00 23.5 14 Oeste 27 Oeste 0 -- -- 39
2020-06-20 12:00:00 21.9 11 Oeste 28 Oeste 0 -- -- 45
2020-06-20 11:00:00 21.4 9 Noroeste 21 Oeste 0 -- -- 48
2020-06-20 10:00:00 20.1 11 Oeste 19 Oeste 0 -- -- 52
2020-06-20 09:00:00 19.6 2 Sudeste 8 Este 0 -- -- 67
2020-06-20 08:00:00 16.6 4 Este 6 Este 0 -- -- 77
2020-06-20 07:00:00 10.3 4 Este 6 Este 0 -- -- 99
2020-06-20 06:00:00 10.1 2 Norte 7 Norte 0 -- -- 98
2020-06-20 05:00:00 9.8 6 Noroeste 7 Noroeste 0 -- -- 98
2020-06-20 04:00:00 11 4 Norte 9 Este 0 -- -- 93
2020-06-20 03:00:00 12.8 6 Este 10 Este 0 -- -- 87
2020-06-20 02:00:00 12.8 5 Nordeste 9 Nordeste 0 -- -- 84
2020-06-20 01:00:00 13.8 6 Nordeste 9 Este 0 -- -- 79
2020-06-20 00:00:00 15.7 7 Nordeste 15 Este 0 -- -- 70
2020-06-19 23:00:00 16.5 9 Este 15 Nordeste 0 -- -- 67
2020-06-19 22:00:00 16.8 5 Oeste 10 Oeste 0 -- -- 45
2020-06-19 21:00:00 22.1 7 Noroeste 21 Oeste 0 -- -- 31
2020-06-19 20:00:00 23.6 12 Oeste 26 Oeste 0 -- -- 31
2020-06-19 19:00:00 24 19 Oeste 31 Oeste 0 -- -- 28
2020-06-19 18:00:00 24.7 15 Oeste 39 Oeste 0 -- -- 30
2020-06-19 17:00:00 25.1 19 Oeste 33 Oeste 0 -- -- 32
2020-06-19 16:00:00 24.2 19 Oeste 32 Oeste 0 -- -- 31
2020-06-19 15:00:00 -- -- -- -- -- -- -- -- --
2020-06-19 14:00:00 -- -- -- -- -- -- -- -- --
2020-06-19 13:00:00 -- -- -- -- -- -- -- -- --
2020-06-19 12:00:00 -- -- -- -- -- -- -- -- --
2020-06-19 11:00:00 -- -- -- -- -- -- -- -- --
2020-06-19 10:00:00 -- -- -- -- -- -- -- -- --
2020-06-19 09:00:00 -- -- -- -- -- -- -- -- --
2020-06-19 08:00:00 -- -- -- -- -- -- -- -- --
2020-06-19 07:00:00 -- -- -- -- -- -- -- -- --
2020-06-19 06:00:00 -- -- -- -- -- -- -- -- --
2020-06-19 05:00:00 -- -- -- -- -- -- -- -- --
2020-06-19 04:00:00 -- -- -- -- -- -- -- -- --
2020-06-19 03:00:00 -- -- -- -- -- -- -- -- --
2020-06-19 02:00:00 -- -- -- -- -- -- -- -- --
2020-06-19 01:00:00 -- -- -- -- -- -- -- -- --
2020-06-19 00:00:00 -- -- -- -- -- -- -- -- --
2020-06-18 23:00:00 -- -- -- -- -- -- -- -- --
2020-06-18 22:00:00 -- -- -- -- -- -- -- -- --
2020-06-18 21:00:00 -- -- -- -- -- -- -- -- --
2020-06-18 20:00:00 -- -- -- -- -- -- -- -- --
2020-06-18 19:00:00 -- -- -- -- -- -- -- -- --
2020-06-18 18:00:00 -- -- -- -- -- -- -- -- --
2020-06-18 17:00:00 -- -- -- -- -- -- -- -- --
2020-06-18 16:00:00 -- -- -- -- -- -- -- -- --
2020-06-18 15:00:00 -- -- -- -- -- -- -- -- --
2020-06-18 14:00:00 -- -- -- -- -- -- -- -- --
2020-06-18 13:00:00 -- -- -- -- -- -- -- -- --
2020-06-18 12:00:00 -- -- -- -- -- -- -- -- --
2020-06-18 11:00:00 -- -- -- -- -- -- -- -- --
2020-06-18 10:00:00 -- -- -- -- -- -- -- -- --
2020-06-18 09:00:00 -- -- -- -- -- -- -- -- --
2020-06-18 08:00:00 -- -- -- -- -- -- -- -- --
2020-06-18 07:00:00 -- -- -- -- -- -- -- -- --
2020-06-18 06:00:00 -- -- -- -- -- -- -- -- --
2020-06-18 05:00:00 -- -- -- -- -- -- -- -- --
2020-06-18 04:00:00 -- -- -- -- -- -- -- -- --
2020-06-18 03:00:00 -- -- -- -- -- -- -- -- --
2020-06-18 02:00:00 -- -- -- -- -- -- -- -- --
2020-06-18 01:00:00 -- -- -- -- -- -- -- -- --
2020-06-18 00:00:00 9.9 9 Este 23 Este 0 -- -- 86
2020-06-17 23:00:00 10.6 9 Este 20 Este 0 -- -- 80
2020-06-17 22:00:00 11.7 8 Este 18 Nordeste 0 -- -- 79
2020-06-17 21:00:00 14 9 Este 17 Nordeste 0 -- -- 70
2020-06-17 20:00:00 17 0 Calma 6 Sudoeste 0 -- -- 53
2020-06-17 19:00:00 16.9 5 Sur 12 Sur 0 -- -- 49
2020-06-17 18:00:00 18.4 8 Sudoeste 21 Noroeste 0 -- -- 41
2020-06-17 17:00:00 18.5 6 Oeste 27 Oeste 0 -- -- 41
2020-06-17 16:00:00 18.2 10 Oeste 32 Noroeste 0 -- -- 39
2020-06-17 15:00:00 18.7 10 Oeste 21 Noroeste 0 -- -- 36
2020-06-17 14:00:00 17.4 13 Noroeste 24 Noroeste 0 -- -- 49
2020-06-17 13:00:00 15.9 9 Nordeste 22 Norte 0 -- -- 59
2020-06-17 12:00:00 15.1 10 Nordeste 18 Nordeste 0 -- -- 68
2020-06-17 11:00:00 13.6 8 Noroeste 17 Sudoeste 0 -- -- 73
2020-06-17 10:00:00 12.8 4 Sudeste 13 Sudoeste 0 -- -- 77
2020-06-17 09:00:00 10.7 8 Sur 15 Sudeste 0 -- -- 89
2020-06-17 08:00:00 9 5 Sudeste 10 Sudeste 0 -- -- 94
2020-06-17 07:00:00 8.2 5 Este 10 Este 0 -- -- 98
2020-06-17 06:00:00 8 6 Este 17 Este 0 -- -- 97
2020-06-17 05:00:00 8.3 10 Sudeste 15 Sudeste 0 -- -- 97
2020-06-17 04:00:00 8.4 8 Este 18 Este 0 -- -- 97
2020-06-17 03:00:00 8.8 7 Este 15 Este 0 -- -- 98
2020-06-17 02:00:00 8.8 8 Este 12 Este 0 -- -- 96
2020-06-17 01:00:00 9 6 Este 11 Este 0 -- -- 96
2020-06-17 00:00:00 9.7 6 Nordeste 13 Este 0 -- -- 93
2020-06-16 23:00:00 11 8 Este 20 Este 0 -- -- 87
2020-06-16 22:00:00 12.2 11 Nordeste 19 Norte 0 -- -- 76
2020-06-16 21:00:00 14.7 12 Oeste 35 Oeste 0 -- -- 59
2020-06-16 20:00:00 16.5 18 Oeste 39 Oeste 0 -- -- 51
2020-06-16 19:00:00 16.4 15 Oeste 45 Oeste 0 -- -- 54
2020-06-16 18:00:00 16 21 Oeste 40 Noroeste 0 -- -- 59
2020-06-16 17:00:00 20.1 20 Oeste 43 Oeste 0 -- -- 42
2020-06-16 16:00:00 19.2 17 Oeste 40 Oeste 0 -- -- 43
2020-06-16 15:00:00 18.8 15 Oeste 42 Oeste 0 -- -- 46
2020-06-16 14:00:00 16.9 20 Oeste 39 Oeste 0 -- -- 51
2020-06-16 13:00:00 16.1 19 Oeste 37 Oeste 0 -- -- 55
2020-06-16 12:00:00 15.7 19 Noroeste 35 Noroeste 0 -- -- 58
2020-06-16 11:00:00 15.4 14 Oeste 28 Oeste 0 -- -- 64
2020-06-16 10:00:00 12 10 Oeste 21 Oeste 0 -- -- 81
2020-06-16 09:00:00 10 12 Oeste 22 Oeste 0 -- -- 91
2020-06-16 08:00:00 10.1 14 Oeste 24 Oeste 0 -- -- 89
2020-06-16 07:00:00 10.1 11 Oeste 22 Oeste 0 -- -- 90
2020-06-16 06:00:00 10.3 13 Oeste 22 Oeste 0 -- -- 91
2020-06-16 05:00:00 10.4 13 Sudoeste 21 Oeste 0 -- -- 93
2020-06-16 04:00:00 10.7 9 Sudoeste 19 Sudoeste 0 -- -- 92
2020-06-16 03:00:00 12 12 Oeste 24 Oeste 0 -- -- 82
2020-06-16 02:00:00 13 11 Oeste 18 Oeste 0 -- -- 75
2020-06-16 01:00:00 13.2 5 Oeste 8 Oeste 0 -- -- 74
2020-06-16 00:00:00 12.9 3 Oeste 5 Noroeste 0 -- -- 80
2020-06-15 23:00:00 14.3 4 Noroeste 7 Noroeste 0 -- -- 72
2020-06-15 22:00:00 15.3 4 Noroeste 12 Oeste 0 -- -- 65
2020-06-15 21:00:00 17.2 6 Noroeste 17 Noroeste 0 -- -- 56
2020-06-15 20:00:00 18.3 10 Noroeste 23 Oeste 0 -- -- 53
2020-06-15 19:00:00 19.7 13 Oeste 23 Oeste 0 -- -- 52
2020-06-15 18:00:00 19.9 9 Noroeste 26 Oeste 0 -- -- 52
2020-06-15 17:00:00 20.3 16 Noroeste 30 Noroeste 0 -- -- 51
2020-06-15 16:00:00 20.2 12 Oeste 30 Oeste 0 -- -- 51
2020-06-15 15:00:00 20.2 14 Oeste 27 Oeste 0 -- -- 55
2020-06-15 14:00:00 18.8 18 Oeste 32 Oeste 0 -- -- 52
2020-06-15 13:00:00 17.6 17 Oeste 31 Oeste 0 -- -- 57
2020-06-15 12:00:00 17.1 15 Oeste 29 Oeste 0 -- -- 55
2020-06-15 11:00:00 16.7 15 Noroeste 27 Oeste 0 -- -- 61
2020-06-15 10:00:00 15.3 15 Noroeste 25 Oeste 0 -- -- 62
2020-06-15 09:00:00 13.9 15 Oeste 24 Oeste 0 -- -- 67
2020-06-15 08:00:00 11.7 12 Oeste 20 Oeste 0 -- -- 78
2020-06-15 07:00:00 8.4 9 Oeste 15 Oeste 0 -- -- 89
2020-06-15 06:00:00 8.8 7 Oeste 17 Oeste 0 -- -- 87
2020-06-15 05:00:00 9.1 10 Oeste 17 Oeste 0 -- -- 84
2020-06-15 04:00:00 8.7 5 Sudoeste 12 Sudoeste 0 -- -- 85
2020-06-15 03:00:00 10 8 Sudoeste 12 Sudoeste 0 -- -- 76
2020-06-15 02:00:00 10.6 8 Sudoeste 13 Sudoeste 0 -- -- 72
2020-06-15 01:00:00 11 5 Oeste 8 Noroeste 0 -- -- 75
2020-06-15 00:00:00 11.4 6 Noroeste 8 Noroeste 0 -- -- 74